createdAt,value
2016-07-03T00:00:47.904Z,1011.46
2016-07-03T00:01:47.897Z,1011.51
2016-07-03T00:02:47.876Z,1011.47
2016-07-03T00:03:47.870Z,1011.42
2016-07-03T00:04:47.850Z,1011.49
2016-07-03T00:05:47.837Z,1011.49
2016-07-03T00:06:47.824Z,1011.47
2016-07-03T00:07:47.811Z,1011.45
2016-07-03T00:08:47.802Z,1011.47
2016-07-03T00:09:47.781Z,1011.51
2016-07-03T00:10:47.767Z,1011.51
2016-07-03T00:11:47.758Z,1011.49
2016-07-03T00:12:47.740Z,1011.46
2016-07-03T00:13:47.730Z,1011.47
2016-07-03T00:14:47.715Z,1011.47
2016-07-03T00:15:47.699Z,1011.5
2016-07-03T00:16:47.689Z,1011.51
2016-07-03T00:17:47.671Z,1011.48
2016-07-03T00:18:47.667Z,1011.44
2016-07-03T00:19:47.645Z,1011.5
2016-07-03T00:20:47.630Z,1011.41
2016-07-03T00:21:47.620Z,1011.47
2016-07-03T00:22:47.604Z,1011.48
2016-07-03T00:23:47.589Z,1011.45
2016-07-03T00:24:47.574Z,1011.45
2016-07-03T00:25:47.561Z,1011.55
2016-07-03T00:26:47.550Z,1011.48
2016-07-03T00:27:47.532Z,1011.5
2016-07-03T00:28:47.519Z,1011.51
2016-07-03T00:29:47.511Z,1011.5
2016-07-03T00:30:47.496Z,1011.57
2016-07-03T00:31:47.484Z,1011.53
2016-07-03T00:32:47.469Z,1011.55
2016-07-03T00:33:47.475Z,1011.5
2016-07-03T00:34:47.444Z,1011.53
2016-07-03T00:35:47.427Z,1011.53
2016-07-03T00:36:47.418Z,1011.51
2016-07-03T00:37:47.401Z,1011.53
2016-07-03T00:38:47.392Z,1011.5
2016-07-03T00:39:47.373Z,1011.5
2016-07-03T00:40:47.359Z,1011.51
2016-07-03T00:41:47.349Z,1011.53
2016-07-03T00:42:47.329Z,1011.52
2016-07-03T00:43:47.323Z,1011.53
2016-07-03T00:44:47.306Z,1011.52
2016-07-03T00:45:47.288Z,1011.51
2016-07-03T00:46:47.279Z,1011.52
2016-07-03T00:47:47.262Z,1011.45
2016-07-03T00:48:47.252Z,1011.52
2016-07-03T00:49:47.238Z,1011.46
2016-07-03T00:50:47.222Z,1011.49
2016-07-03T00:51:47.208Z,1011.51
2016-07-03T00:52:47.193Z,1011.52
2016-07-03T00:53:47.182Z,1011.49
2016-07-03T00:54:47.168Z,1011.5
2016-07-03T00:55:47.152Z,1011.52
2016-07-03T00:56:47.139Z,1011.5
2016-07-03T00:57:47.124Z,1011.48
2016-07-03T00:58:47.113Z,1011.47
2016-07-03T00:59:47.096Z,1011.47
2016-07-03T01:00:47.081Z,1011.48
2016-07-03T01:01:47.073Z,1011.42
2016-07-03T01:02:47.056Z,1011.42
2016-07-03T01:03:47.044Z,1011.39
2016-07-03T01:04:47.030Z,1011.41
2016-07-03T01:05:47.012Z,1011.43
2016-07-03T01:06:47.004Z,1011.39
2016-07-03T01:07:46.987Z,1011.34
2016-07-03T01:08:46.972Z,1011.37
2016-07-03T01:09:46.961Z,1011.34
2016-07-03T01:10:46.943Z,1011.34
2016-07-03T01:11:46.929Z,1011.3
2016-07-03T01:12:46.914Z,1011.24
2016-07-03T01:13:46.903Z,1011.24
2016-07-03T01:14:46.885Z,1011.21
2016-07-03T01:15:46.874Z,1011.2
2016-07-03T01:16:46.866Z,1011.26
2016-07-03T01:17:46.846Z,1011.22
2016-07-03T01:18:46.833Z,1011.19
2016-07-03T01:19:46.820Z,1011.24
2016-07-03T01:20:46.807Z,1011.17
2016-07-03T01:21:46.793Z,1011.18
2016-07-03T01:22:46.779Z,1011.18
2016-07-03T01:23:46.765Z,1011.16
2016-07-03T01:24:46.754Z,1011.14
2016-07-03T01:25:46.740Z,1011.16
2016-07-03T01:26:46.726Z,1011.13
2016-07-03T01:27:46.708Z,1011.17
2016-07-03T01:28:46.697Z,1011.14
2016-07-03T01:29:46.685Z,1011.12
2016-07-03T01:30:46.667Z,1011.12
2016-07-03T01:31:46.659Z,1011.1
2016-07-03T01:32:46.640Z,1011.06
2016-07-03T01:33:46.623Z,1011.08
2016-07-03T01:34:46.611Z,1011.07
2016-07-03T01:35:46.596Z,1011.08
2016-07-03T01:36:46.586Z,1011.06
2016-07-03T01:37:46.572Z,1011.11
2016-07-03T01:38:46.555Z,1011.08
2016-07-03T01:39:46.552Z,1011.08
2016-07-03T01:40:46.529Z,1011.06
2016-07-03T01:41:46.520Z,1011.06
2016-07-03T01:42:46.502Z,1011.11
2016-07-03T01:43:46.488Z,1011.13
2016-07-03T01:44:46.476Z,1011.1
2016-07-03T01:45:46.459Z,1011.1
2016-07-03T01:46:46.451Z,1011.08
2016-07-03T01:47:46.433Z,1011.06
2016-07-03T01:48:46.419Z,1011.1
2016-07-03T01:49:46.402Z,1011.11
2016-07-03T01:50:46.390Z,1011.06
2016-07-03T01:51:46.379Z,1011.09
2016-07-03T01:52:46.361Z,1011.13
2016-07-03T01:53:46.347Z,1011.07
2016-07-03T01:54:46.333Z,1011.06
2016-07-03T01:55:46.318Z,1011.09
2016-07-03T01:56:46.310Z,1011.09
2016-07-03T01:57:46.293Z,1011.06
2016-07-03T01:58:46.279Z,1011.05
2016-07-03T01:59:46.269Z,1011.05
2016-07-03T02:00:46.256Z,1011.02
2016-07-03T02:01:46.244Z,1010.98
2016-07-03T02:02:46.226Z,1011
2016-07-03T02:03:46.232Z,1010.94
2016-07-03T02:04:46.201Z,1010.95
2016-07-03T02:05:46.184Z,1011.02
2016-07-03T02:06:46.176Z,1010.9
2016-07-03T02:07:46.157Z,1010.89
2016-07-03T02:08:46.147Z,1010.89
2016-07-03T02:09:46.131Z,1010.86
2016-07-03T02:10:46.116Z,1010.84
2016-07-03T02:11:46.107Z,1010.82
2016-07-03T02:12:46.089Z,1010.82
2016-07-03T02:13:46.071Z,1010.79
2016-07-03T02:14:46.064Z,1010.78
2016-07-03T02:15:46.046Z,1010.78
2016-07-03T02:16:46.033Z,1010.77
2016-07-03T02:17:46.022Z,1010.74
2016-07-03T02:18:46.008Z,1010.77
2016-07-03T02:19:45.990Z,1010.73
2016-07-03T02:20:45.977Z,1010.72
2016-07-03T02:21:45.967Z,1010.71
2016-07-03T02:22:45.950Z,1010.74
2016-07-03T02:23:45.942Z,1010.7
2016-07-03T02:24:45.925Z,1010.7
2016-07-03T02:25:45.909Z,1010.7
2016-07-03T02:26:45.901Z,1010.68
2016-07-03T02:27:45.884Z,1010.67
2016-07-03T02:28:45.869Z,1010.66
2016-07-03T02:29:45.854Z,1010.67
2016-07-03T02:30:45.843Z,1010.6
2016-07-03T02:31:45.829Z,1010.62
2016-07-03T02:32:45.814Z,1010.64
2016-07-03T02:33:45.800Z,1010.68
2016-07-03T02:34:45.786Z,1010.57
2016-07-03T02:35:45.769Z,1010.59
2016-07-03T02:36:45.762Z,1010.63
2016-07-03T02:37:45.749Z,1010.58
2016-07-03T02:38:45.729Z,1010.57
2016-07-03T02:39:45.720Z,1010.58
2016-07-03T02:40:45.701Z,1010.62
2016-07-03T02:41:45.688Z,1010.58
2016-07-03T02:42:45.676Z,1010.64
2016-07-03T02:43:45.659Z,1010.62
2016-07-03T02:44:45.649Z,1010.61
2016-07-03T02:45:45.639Z,1010.6
2016-07-03T02:46:45.624Z,1010.57
2016-07-03T02:47:45.607Z,1010.55
2016-07-03T02:48:45.593Z,1010.53
2016-07-03T02:49:45.578Z,1010.53
2016-07-03T02:50:45.565Z,1010.52
2016-07-03T02:51:45.556Z,1010.52
2016-07-03T02:52:45.539Z,1010.52
2016-07-03T02:53:45.522Z,1010.52
2016-07-03T02:54:45.510Z,1010.54
2016-07-03T02:55:45.496Z,1010.53
2016-07-03T02:56:45.487Z,1010.54
2016-07-03T02:57:45.468Z,1010.49
2016-07-03T02:58:45.454Z,1010.52
2016-07-03T02:59:45.439Z,1010.53
2016-07-03T03:00:45.427Z,1010.52
2016-07-03T03:01:45.418Z,1010.49
2016-07-03T03:02:45.402Z,1010.5
2016-07-03T03:03:45.382Z,1010.49
2016-07-03T03:04:45.372Z,1010.46
2016-07-03T03:05:45.355Z,1010.49
2016-07-03T03:06:45.344Z,1010.48
2016-07-03T03:07:45.331Z,1010.48
2016-07-03T03:08:45.316Z,1010.46
2016-07-03T03:09:45.303Z,1010.47
2016-07-03T03:10:45.289Z,1010.47
2016-07-03T03:11:45.276Z,1010.47
2016-07-03T03:12:45.260Z,1010.49
2016-07-03T03:13:45.246Z,1010.47
2016-07-03T03:14:45.233Z,1010.46
2016-07-03T03:15:45.218Z,1010.45
2016-07-03T03:16:45.209Z,1010.43
2016-07-03T03:17:45.192Z,1010.38
2016-07-03T03:18:45.178Z,1010.39
2016-07-03T03:19:45.167Z,1010.4
2016-07-03T03:20:45.147Z,1010.39
2016-07-03T03:21:45.144Z,1010.38
2016-07-03T03:22:45.125Z,1010.36
2016-07-03T03:23:45.108Z,1010.33
2016-07-03T03:24:45.097Z,1010.36
2016-07-03T03:25:45.083Z,1010.33
2016-07-03T03:26:45.065Z,1010.33
2016-07-03T03:27:45.055Z,1010.3
2016-07-03T03:28:45.040Z,1010.29
2016-07-03T03:29:45.032Z,1010.29
2016-07-03T03:30:45.012Z,1010.27
2016-07-03T03:31:45.000Z,1010.29
2016-07-03T03:32:44.987Z,1010.29
2016-07-03T03:33:44.971Z,1010.27
2016-07-03T03:34:44.962Z,1010.28
2016-07-03T03:35:44.942Z,1010.23
2016-07-03T03:36:44.932Z,1010.24
2016-07-03T03:37:44.915Z,1010.2
2016-07-03T03:38:44.898Z,1010.26
2016-07-03T03:39:44.889Z,1010.25
2016-07-03T03:40:44.871Z,1010.22
2016-07-03T03:41:44.856Z,1010.21
2016-07-03T03:42:44.847Z,1010.23
2016-07-03T03:43:44.829Z,1010.22
2016-07-03T03:44:44.823Z,1010.23
2016-07-03T03:45:44.805Z,1010.21
2016-07-03T03:46:44.791Z,1010.25
2016-07-03T03:47:44.779Z,1010.25
2016-07-03T03:48:44.763Z,1010.23
2016-07-03T03:49:44.750Z,1010.24
2016-07-03T03:50:44.736Z,1010.25
2016-07-03T03:51:44.725Z,1010.23
2016-07-03T03:52:44.711Z,1010.25
2016-07-03T03:53:44.693Z,1010.2
2016-07-03T03:54:44.681Z,1010.22
2016-07-03T03:55:44.667Z,1010.26
2016-07-03T03:56:44.652Z,1010.24
2016-07-03T03:57:44.640Z,1010.23
2016-07-03T03:58:44.624Z,1010.18
2016-07-03T03:59:44.615Z,1010.18
2016-07-03T04:00:44.598Z,1010.2
2016-07-03T04:01:44.582Z,1010.24
2016-07-03T04:02:44.573Z,1010.23
2016-07-03T04:03:44.556Z,1010.24
2016-07-03T04:04:44.543Z,1010.23
2016-07-03T04:05:44.529Z,1010.22
2016-07-03T04:06:44.513Z,1010.24
2016-07-03T04:07:44.501Z,1010.28
2016-07-03T04:08:44.488Z,1010.23
2016-07-03T04:09:44.477Z,1010.2
2016-07-03T04:10:44.465Z,1010.23
2016-07-03T04:11:44.441Z,1010.2
2016-07-03T04:12:44.433Z,1010.25
2016-07-03T04:13:44.413Z,1010.26
2016-07-03T04:14:44.405Z,1010.27
2016-07-03T04:15:44.391Z,1010.25
2016-07-03T04:16:44.374Z,1010.23
2016-07-03T04:17:44.363Z,1010.3
2016-07-03T04:18:44.346Z,1010.29
2016-07-03T04:19:44.336Z,1010.26
2016-07-03T04:20:44.322Z,1010.27
2016-07-03T04:21:44.307Z,1010.26
2016-07-03T04:22:44.296Z,1010.31
2016-07-03T04:23:44.279Z,1010.31
2016-07-03T04:24:44.271Z,1010.3
2016-07-03T04:25:44.252Z,1010.29
2016-07-03T04:26:44.243Z,1010.28
2016-07-03T04:27:44.228Z,1010.28
2016-07-03T04:28:44.212Z,1010.29
2016-07-03T04:29:44.200Z,1010.3
2016-07-03T04:30:44.187Z,1010.34
2016-07-03T04:31:44.177Z,1010.35
2016-07-03T04:32:44.160Z,1010.36
2016-07-03T04:33:44.145Z,1010.35
2016-07-03T04:34:44.135Z,1010.38
2016-07-03T04:35:44.118Z,1010.38
2016-07-03T04:36:44.102Z,1010.38
2016-07-03T04:37:44.091Z,1010.34
2016-07-03T04:38:44.073Z,1010.38
2016-07-03T04:39:44.063Z,1010.37
2016-07-03T04:40:44.048Z,1010.39
2016-07-03T04:41:44.039Z,1010.37
2016-07-03T04:42:44.022Z,1010.39
2016-07-03T04:43:44.008Z,1010.4
2016-07-03T04:44:43.997Z,1010.4
2016-07-03T04:45:43.981Z,1010.39
2016-07-03T04:46:43.971Z,1010.36
2016-07-03T04:47:43.953Z,1010.36
2016-07-03T04:48:43.938Z,1010.35
2016-07-03T04:49:43.928Z,1010.34
2016-07-03T04:50:43.911Z,1010.35
2016-07-03T04:51:43.903Z,1010.34
2016-07-03T04:52:43.885Z,1010.33
2016-07-03T04:53:43.874Z,1010.34
2016-07-03T04:54:43.858Z,1010.34
2016-07-03T04:55:43.843Z,1010.38
2016-07-03T04:56:43.832Z,1010.36
2016-07-03T04:57:43.814Z,1010.33
2016-07-03T04:58:43.806Z,1010.36
2016-07-03T04:59:43.789Z,1010.4
2016-07-03T05:00:43.774Z,1010.34
2016-07-03T05:01:43.762Z,1010.38
2016-07-03T05:02:43.745Z,1010.36
2016-07-03T05:03:43.737Z,1010.33
2016-07-03T05:04:43.718Z,1010.38
2016-07-03T05:05:43.702Z,1010.36
2016-07-03T05:06:43.690Z,1010.38
2016-07-03T05:07:43.677Z,1010.38
2016-07-03T05:08:43.664Z,1010.34
2016-07-03T05:09:43.649Z,1010.36
2016-07-03T05:10:43.641Z,1010.35
2016-07-03T05:11:43.623Z,1010.31
2016-07-03T05:12:43.607Z,1010.34
2016-07-03T05:13:43.596Z,1010.31
2016-07-03T05:14:43.578Z,1010.31
2016-07-03T05:15:43.566Z,1010.29
2016-07-03T05:16:43.553Z,1010.32
2016-07-03T05:17:43.543Z,1010.33
2016-07-03T05:18:43.526Z,1010.31
2016-07-03T05:19:43.510Z,1010.31
2016-07-03T05:20:43.499Z,1010.32
2016-07-03T05:21:43.485Z,1010.32
2016-07-03T05:22:43.475Z,1010.33
2016-07-03T05:23:43.460Z,1010.33
2016-07-03T05:24:43.443Z,1010.34
2016-07-03T05:25:43.441Z,1010.35
2016-07-03T05:26:43.416Z,1010.37
2016-07-03T05:27:43.405Z,1010.39
2016-07-03T05:28:43.390Z,1010.4
2016-07-03T05:29:43.375Z,1010.41
2016-07-03T05:30:43.364Z,1010.41
2016-07-03T05:31:43.348Z,1010.38
2016-07-03T05:32:43.339Z,1010.42
2016-07-03T05:33:43.322Z,1010.42
2016-07-03T05:34:43.306Z,1010.44
2016-07-03T05:35:43.295Z,1010.42
2016-07-03T05:36:43.278Z,1010.46
2016-07-03T05:37:43.265Z,1010.43
2016-07-03T05:38:43.251Z,1010.43
2016-07-03T05:39:43.241Z,1010.42
2016-07-03T05:40:43.225Z,1010.42
2016-07-03T05:41:43.206Z,1010.45
2016-07-03T05:42:43.203Z,1010.42
2016-07-03T05:43:43.188Z,1010.42
2016-07-03T05:44:43.176Z,1010.41
2016-07-03T05:45:43.158Z,1010.42
2016-07-03T05:46:43.158Z,1010.41
2016-07-03T05:47:43.129Z,1010.42
2016-07-03T05:48:43.114Z,1010.42
2016-07-03T05:49:43.106Z,1010.39
2016-07-03T05:50:43.087Z,1010.4
2016-07-03T05:51:43.080Z,1010.38
2016-07-03T05:52:43.062Z,1010.42
2016-07-03T05:53:43.045Z,1010.45
2016-07-03T05:54:43.037Z,1010.4
2016-07-03T05:55:43.021Z,1010.44
2016-07-03T05:56:43.011Z,1010.42
2016-07-03T05:57:42.994Z,1010.42
2016-07-03T05:58:42.979Z,1010.4
2016-07-03T05:59:42.968Z,1010.4
2016-07-03T06:00:42.950Z,1010.44
2016-07-03T06:01:42.939Z,1010.41
2016-07-03T06:02:42.926Z,1010.47
2016-07-03T06:03:42.912Z,1010.44
2016-07-03T06:04:42.901Z,1010.44
2016-07-03T06:05:42.886Z,1010.4
2016-07-03T06:06:42.875Z,1010.4
2016-07-03T06:07:42.859Z,1010.39
2016-07-03T06:08:42.850Z,1010.4
2016-07-03T06:09:42.832Z,1010.4
2016-07-03T06:10:42.818Z,1010.43
2016-07-03T06:11:42.807Z,1010.38
2016-07-03T06:12:42.792Z,1010.37
2016-07-03T06:13:42.783Z,1010.37
2016-07-03T06:14:42.763Z,1010.4
2016-07-03T06:15:42.755Z,1010.39
2016-07-03T06:16:42.740Z,1010.4
2016-07-03T06:17:42.729Z,1010.42
2016-07-03T06:18:42.717Z,1010.42
2016-07-03T06:19:42.698Z,1010.43
2016-07-03T06:20:42.689Z,1010.43
2016-07-03T06:21:42.671Z,1010.43
2016-07-03T06:22:42.663Z,1010.42
2016-07-03T06:23:42.646Z,1010.41
2016-07-03T06:24:42.631Z,1010.43
2016-07-03T06:25:42.617Z,1010.45
2016-07-03T06:26:42.603Z,1010.48
2016-07-03T06:27:42.595Z,1010.48
2016-07-03T06:28:42.577Z,1010.49
2016-07-03T06:29:42.566Z,1010.54
2016-07-03T06:30:42.552Z,1010.53
2016-07-03T06:31:42.539Z,1010.56
2016-07-03T06:32:42.526Z,1010.53
2016-07-03T06:33:42.510Z,1010.57
2016-07-03T06:34:42.496Z,1010.55
2016-07-03T06:35:42.482Z,1010.59
2016-07-03T06:36:42.474Z,1010.58
2016-07-03T06:37:42.457Z,1010.56
2016-07-03T06:38:42.442Z,1010.57
2016-07-03T06:39:42.430Z,1010.56
2016-07-03T06:40:42.411Z,1010.56
2016-07-03T06:41:42.402Z,1010.6
2016-07-03T06:42:42.387Z,1010.52
2016-07-03T06:43:42.378Z,1010.55
2016-07-03T06:44:42.360Z,1010.52
2016-07-03T06:45:42.349Z,1010.56
2016-07-03T06:46:42.336Z,1010.59
2016-07-03T06:47:42.315Z,1010.63
2016-07-03T06:48:42.304Z,1010.63
2016-07-03T06:49:42.292Z,1010.63
2016-07-03T06:50:42.282Z,1010.62
2016-07-03T06:51:42.266Z,1010.69
2016-07-03T06:52:42.257Z,1010.69
2016-07-03T06:53:42.239Z,1010.69
2016-07-03T06:54:42.222Z,1010.73
2016-07-03T06:55:42.215Z,1010.72
2016-07-03T06:56:42.199Z,1010.73
2016-07-03T06:57:42.186Z,1010.75
2016-07-03T06:58:42.171Z,1010.77
2016-07-03T06:59:42.160Z,1010.77
2016-07-03T07:00:42.148Z,1010.81
2016-07-03T07:01:42.136Z,1010.83
2016-07-03T07:02:42.123Z,1010.89
2016-07-03T07:03:42.108Z,1010.86
2016-07-03T07:04:42.096Z,1010.9
2016-07-03T07:05:42.078Z,1010.89
2016-07-03T07:06:42.071Z,1010.96
2016-07-03T07:07:42.053Z,1010.98
2016-07-03T07:08:42.041Z,1011
2016-07-03T07:09:42.026Z,1011.01
2016-07-03T07:10:42.020Z,1011.04
2016-07-03T07:11:41.997Z,1011.07
2016-07-03T07:12:41.991Z,1011.05
2016-07-03T07:13:41.973Z,1011.09
2016-07-03T07:14:41.966Z,1011.06
2016-07-03T07:15:41.948Z,1011.07
2016-07-03T07:16:41.934Z,1011.05
2016-07-03T07:17:41.923Z,1011.06
2016-07-03T07:18:41.909Z,1011.07
2016-07-03T07:19:41.894Z,1011.12
2016-07-03T07:20:41.881Z,1011.07
2016-07-03T07:21:41.869Z,1011.12
2016-07-03T07:22:41.856Z,1011.09
2016-07-03T07:23:41.841Z,1011.12
2016-07-03T07:24:41.827Z,1011.1
2016-07-03T07:25:41.816Z,1011.13
2016-07-03T07:26:41.801Z,1011.1
2016-07-03T07:27:41.795Z,1011.07
2016-07-03T07:28:41.781Z,1011.1
2016-07-03T07:29:41.767Z,1011.07
2016-07-03T07:30:41.749Z,1011.11
2016-07-03T07:31:41.742Z,1011.12
2016-07-03T07:32:41.724Z,1011.14
2016-07-03T07:33:41.716Z,1011.11
2016-07-03T07:34:41.701Z,1011.16
2016-07-03T07:35:41.686Z,1011.13
2016-07-03T07:36:41.675Z,1011.13
2016-07-03T07:37:41.667Z,1011.14
2016-07-03T07:38:41.651Z,1011.18
2016-07-03T07:39:41.635Z,1011.17
2016-07-03T07:40:41.624Z,1011.17
2016-07-03T07:41:41.612Z,1011.19
2016-07-03T07:42:41.599Z,1011.18
2016-07-03T07:43:41.582Z,1011.2
2016-07-03T07:44:41.573Z,1011.13
2016-07-03T07:45:41.556Z,1011.11
2016-07-03T07:46:41.554Z,1011.05
2016-07-03T07:47:41.532Z,1011.03
2016-07-03T07:48:41.522Z,1011.06
2016-07-03T07:49:41.507Z,1011.09
2016-07-03T07:50:41.496Z,1011.07
2016-07-03T07:51:41.481Z,1011.04
2016-07-03T07:52:41.471Z,1011.05
2016-07-03T07:53:41.456Z,1011.07
2016-07-03T07:54:41.444Z,1011.09
2016-07-03T07:55:41.430Z,1011.11
2016-07-03T07:56:41.420Z,1011.16
2016-07-03T07:57:41.403Z,1011.15
2016-07-03T07:58:41.394Z,1011.12
2016-07-03T07:59:41.378Z,1011.12
2016-07-03T08:00:41.363Z,1011.11
2016-07-03T08:01:41.351Z,1011.07
2016-07-03T08:02:41.337Z,1011.06
2016-07-03T08:03:41.327Z,1011.09
2016-07-03T08:04:41.318Z,1010.99
2016-07-03T08:05:41.300Z,1011.02
2016-07-03T08:06:41.289Z,1011.04
2016-07-03T08:07:41.272Z,1011.05
2016-07-03T08:08:41.267Z,1011.03
2016-07-03T08:09:41.248Z,1011.02
2016-07-03T08:10:41.235Z,1011.04
2016-07-03T08:11:41.222Z,1011
2016-07-03T08:12:41.212Z,1011
2016-07-03T08:13:41.199Z,1010.97
2016-07-03T08:14:41.189Z,1011
2016-07-03T08:15:41.173Z,1010.95
2016-07-03T08:16:41.164Z,1010.93
2016-07-03T08:17:41.147Z,1010.96
2016-07-03T08:18:41.138Z,1010.93
2016-07-03T08:19:41.121Z,1010.9
2016-07-03T08:20:41.113Z,1010.86
2016-07-03T08:21:41.098Z,1010.84
2016-07-03T08:22:41.087Z,1010.86
2016-07-03T08:23:41.073Z,1010.8
2016-07-03T08:24:41.062Z,1010.82
2016-07-03T08:25:41.047Z,1010.82
2016-07-03T08:26:41.036Z,1010.79
2016-07-03T08:27:41.026Z,1010.78
2016-07-03T08:28:41.012Z,1010.74
2016-07-03T08:29:40.998Z,1010.76
2016-07-03T08:30:40.986Z,1010.71
2016-07-03T08:31:40.975Z,1010.74
2016-07-03T08:32:40.961Z,1010.71
2016-07-03T08:33:40.953Z,1010.66
2016-07-03T08:34:40.934Z,1010.67
2016-07-03T08:35:40.923Z,1010.7
2016-07-03T08:36:40.910Z,1010.64
2016-07-03T08:37:40.901Z,1010.64
2016-07-03T08:38:40.884Z,1010.63
2016-07-03T08:39:40.873Z,1010.59
2016-07-03T08:40:40.860Z,1010.58
2016-07-03T08:41:40.851Z,1010.59
2016-07-03T08:42:40.835Z,1010.58
2016-07-03T08:43:40.826Z,1010.54
2016-07-03T08:44:40.808Z,1010.45
2016-07-03T08:45:40.800Z,1010.46
2016-07-03T08:46:40.783Z,1010.45
2016-07-03T08:47:40.772Z,1010.41
2016-07-03T08:48:40.760Z,1010.41
2016-07-03T08:49:40.749Z,1010.35
2016-07-03T08:50:40.741Z,1010.38
2016-07-03T08:51:40.723Z,1010.4
2016-07-03T08:52:40.711Z,1010.37
2016-07-03T08:53:40.698Z,1010.38
2016-07-03T08:54:40.689Z,1010.39
2016-07-03T08:55:40.672Z,1010.39
2016-07-03T08:56:40.660Z,1010.4
2016-07-03T08:57:40.644Z,1010.42
2016-07-03T08:58:40.632Z,1010.42
2016-07-03T08:59:40.621Z,1010.44
2016-07-03T09:00:40.611Z,1010.45
2016-07-03T09:01:40.601Z,1010.44
2016-07-03T09:02:40.583Z,1010.4
2016-07-03T09:03:40.575Z,1010.45
2016-07-03T09:04:40.558Z,1010.42
2016-07-03T09:05:40.549Z,1010.44
2016-07-03T09:06:40.535Z,1010.42
2016-07-03T09:07:40.526Z,1010.42
2016-07-03T09:08:40.511Z,1010.42
2016-07-03T09:09:40.501Z,1010.42
2016-07-03T09:10:40.486Z,1010.43
2016-07-03T09:11:40.474Z,1010.48
2016-07-03T09:12:40.466Z,1010.43
2016-07-03T09:13:40.449Z,1010.39
2016-07-03T09:14:40.442Z,1010.41
2016-07-03T09:15:40.426Z,1010.4
2016-07-03T09:16:40.415Z,1010.35
2016-07-03T09:17:40.402Z,1010.35
2016-07-03T09:18:40.388Z,1010.34
2016-07-03T09:19:40.379Z,1010.32
2016-07-03T09:20:40.365Z,1010.33
2016-07-03T09:21:40.354Z,1010.32
2016-07-03T09:22:40.343Z,1010.31
2016-07-03T09:23:40.332Z,1010.33
2016-07-03T09:24:40.318Z,1010.33
2016-07-03T09:25:40.305Z,1010.35
2016-07-03T09:26:40.298Z,1010.32
2016-07-03T09:27:40.290Z,1010.37
2016-07-03T09:28:40.270Z,1010.34
2016-07-03T09:29:40.265Z,1010.33
2016-07-03T09:30:40.249Z,1010.39
2016-07-03T09:31:40.239Z,1010.34
2016-07-03T09:32:40.232Z,1010.32
2016-07-03T09:33:40.214Z,1010.29
2016-07-03T09:34:40.205Z,1010.31
2016-07-03T09:35:40.188Z,1010.25
2016-07-03T09:36:40.180Z,1010.27
2016-07-03T09:37:40.173Z,1010.3
2016-07-03T09:38:40.157Z,1010.3
2016-07-03T09:39:40.147Z,1010.3
2016-07-03T09:40:40.139Z,1010.31
2016-07-03T09:41:40.130Z,1010.31
2016-07-03T09:42:40.113Z,1010.32
2016-07-03T09:43:40.106Z,1010.31
2016-07-03T09:44:40.090Z,1010.32
2016-07-03T09:45:40.081Z,1010.34
2016-07-03T09:46:40.073Z,1010.33
2016-07-03T09:47:40.058Z,1010.32
2016-07-03T09:48:40.045Z,1010.35
2016-07-03T09:49:40.040Z,1010.39
2016-07-03T09:50:40.022Z,1010.42
2016-07-03T09:51:40.012Z,1010.4
2016-07-03T09:52:39.998Z,1010.43
2016-07-03T09:53:39.989Z,1010.47
2016-07-03T09:54:39.977Z,1010.42
2016-07-03T09:55:39.973Z,1010.47
2016-07-03T09:56:39.964Z,1010.47
2016-07-03T09:57:39.947Z,1010.48
2016-07-03T09:58:39.936Z,1010.53
2016-07-03T09:59:39.931Z,1010.51
2016-07-03T10:00:39.914Z,1010.55
2016-07-03T10:01:39.905Z,1010.53
2016-07-03T10:02:39.895Z,1010.51
2016-07-03T10:03:39.885Z,1010.52
2016-07-03T10:04:39.874Z,1010.49
2016-07-03T10:05:39.864Z,1010.48
2016-07-03T10:06:39.858Z,1010.52
2016-07-03T10:07:39.845Z,1010.54
2016-07-03T10:08:39.831Z,1010.45
2016-07-03T10:09:39.825Z,1010.45
2016-07-03T10:10:39.814Z,1010.41
2016-07-03T10:11:39.799Z,1010.4
2016-07-03T10:12:39.791Z,1010.38
2016-07-03T10:13:39.784Z,1010.35
2016-07-03T10:14:39.768Z,1010.31
2016-07-03T10:15:39.757Z,1010.28
2016-07-03T10:16:39.749Z,1010.29
2016-07-03T10:17:39.741Z,1010.27
2016-07-03T10:18:39.729Z,1010.25
2016-07-03T10:19:39.717Z,1010.27
2016-07-03T10:20:39.710Z,1010.27
2016-07-03T10:21:39.699Z,1010.27
2016-07-03T10:22:39.686Z,1010.28
2016-07-03T10:23:39.676Z,1010.29
2016-07-03T10:24:39.666Z,1010.32
2016-07-03T10:25:39.660Z,1010.3
2016-07-03T10:26:39.645Z,1010.3
2016-07-03T10:27:39.635Z,1010.23
2016-07-03T10:28:39.628Z,1010.21
2016-07-03T10:29:39.620Z,1010.25
2016-07-03T10:30:39.605Z,1010.27
2016-07-03T10:31:39.593Z,1010.33
2016-07-03T10:32:39.587Z,1010.28
2016-07-03T10:33:39.578Z,1010.31
2016-07-03T10:34:39.574Z,1010.32
2016-07-03T10:35:39.554Z,1010.34
2016-07-03T10:36:39.552Z,1010.32
2016-07-03T10:37:39.536Z,1010.28
2016-07-03T10:38:39.526Z,1010.26
2016-07-03T10:39:39.520Z,1010.26
2016-07-03T10:40:39.514Z,1010.19
2016-07-03T10:41:39.495Z,1010.23
2016-07-03T10:42:39.486Z,1010.22
2016-07-03T10:43:39.477Z,1010.23
2016-07-03T10:44:39.470Z,1010.23
2016-07-03T10:45:39.456Z,1010.23
2016-07-03T10:46:39.448Z,1010.21
2016-07-03T10:47:39.435Z,1010.22
2016-07-03T10:48:39.429Z,1010.28
2016-07-03T10:49:39.418Z,1010.26
2016-07-03T10:50:39.414Z,1010.2
2016-07-03T10:51:39.400Z,1010.23
2016-07-03T10:52:39.394Z,1010.12
2016-07-03T10:53:39.388Z,1010.14
2016-07-03T10:54:39.371Z,1010.12
2016-07-03T10:55:39.366Z,1010.11
2016-07-03T10:56:39.356Z,1010.1
2016-07-03T10:57:39.391Z,1010.13
2016-07-03T10:58:39.339Z,1010.08
2016-07-03T10:59:39.331Z,1010.09
2016-07-03T11:00:39.323Z,1010.15
2016-07-03T11:01:39.316Z,1010.12
2016-07-03T11:02:39.308Z,1010.18
2016-07-03T11:03:39.300Z,1010.16
2016-07-03T11:04:39.295Z,1010.19
2016-07-03T11:05:39.285Z,1010.19
2016-07-03T11:06:39.273Z,1010.18
2016-07-03T11:07:39.265Z,1010.18
2016-07-03T11:08:39.254Z,1010.13
2016-07-03T11:09:39.245Z,1010.16
2016-07-03T11:10:39.240Z,1010.11
2016-07-03T11:11:39.231Z,1010.13
2016-07-03T11:12:39.223Z,1010.15
2016-07-03T11:13:39.217Z,1010.16
2016-07-03T11:14:39.204Z,1010.1
2016-07-03T11:15:39.200Z,1010.13
2016-07-03T11:16:39.193Z,1010.11
2016-07-03T11:17:39.184Z,1010.09
2016-07-03T11:18:39.176Z,1010.05
2016-07-03T11:19:39.167Z,1010
2016-07-03T11:20:39.165Z,1010.02
2016-07-03T11:21:39.153Z,1010.01
2016-07-03T11:22:39.144Z,1010.03
2016-07-03T11:23:39.138Z,1010.05
2016-07-03T11:24:39.131Z,1010.05
2016-07-03T11:25:39.122Z,1010.08
2016-07-03T11:26:39.115Z,1010.12
2016-07-03T11:27:39.114Z,1010.11
2016-07-03T11:28:39.102Z,1010.15
2016-07-03T11:29:39.100Z,1010.09
2016-07-03T11:30:39.091Z,1010.09
2016-07-03T11:31:39.080Z,1010.11
2016-07-03T11:32:39.076Z,1010.12
2016-07-03T11:33:39.070Z,1010.17
2016-07-03T11:34:39.067Z,1010.23
2016-07-03T11:35:39.058Z,1010.28
2016-07-03T11:36:39.047Z,1010.29
2016-07-03T11:37:39.038Z,1010.27
2016-07-03T11:38:39.035Z,1010.19
2016-07-03T11:39:39.032Z,1010.17
2016-07-03T11:40:39.026Z,1010.13
2016-07-03T11:41:39.019Z,1010.04
2016-07-03T11:42:39.020Z,1010.06
2016-07-03T11:43:39.013Z,1010.08
2016-07-03T11:44:39.006Z,1010.07
2016-07-03T11:45:39.008Z,1010.05
2016-07-03T11:46:39.000Z,1010.03
2016-07-03T11:47:39.001Z,1010.06
2016-07-03T11:48:38.996Z,1010.07
2016-07-03T11:49:38.995Z,1010.07
2016-07-03T11:50:38.998Z,1010.05
2016-07-03T11:51:38.991Z,1010.07
2016-07-03T11:52:38.992Z,1010.07
2016-07-03T11:53:38.994Z,1010.06
2016-07-03T11:54:38.991Z,1009.99
2016-07-03T11:55:38.991Z,1009.98
2016-07-03T11:56:38.992Z,1009.95
2016-07-03T11:57:38.989Z,1009.93
2016-07-03T11:58:38.992Z,1009.98
2016-07-03T11:59:39.002Z,1009.96
2016-07-03T12:00:38.999Z,1009.98
2016-07-03T12:01:39.001Z,1010
2016-07-03T12:02:39.002Z,1009.93
2016-07-03T12:03:39.006Z,1009.92
2016-07-03T12:04:39.005Z,1009.9
2016-07-03T12:05:39.006Z,1009.94
2016-07-03T12:06:39.020Z,1009.92
2016-07-03T12:07:39.014Z,1009.91
2016-07-03T12:08:39.029Z,1009.91